sensor_id;sensor_type;location;lat;lon;timestamp;pressure;altitude;pressure_sealevel;temperature;humidity
31096;BME280;17749;51.962;8.560;2022-12-26T06:02:58;99602.47;;;9.27;100.00
31096;BME280;17749;51.962;8.560;2022-12-26T06:05:26;99603.41;;;9.26;100.00
31096;BME280;17749;51.962;8.560;2022-12-26T06:07:53;99607.25;;;9.18;100.00
31096;BME280;17749;51.962;8.560;2022-12-26T06:10:20;99611.53;;;9.23;100.00
31096;BME280;17749;51.962;8.560;2022-12-26T06:12:47;99612.56;;;9.18;100.00
31096;BME280;17749;51.962;8.560;2022-12-26T06:15:14;99614.28;;;9.19;100.00
31096;BME280;17749;51.962;8.560;2022-12-26T06:17:41;99613.50;;;9.17;100.00
31096;BME280;17749;51.962;8.560;2022-12-26T06:20:08;99615.31;;;9.17;100.00
31096;BME280;17749;51.962;8.560;2022-12-26T06:22:36;99619.59;;;9.19;100.00
31096;BME280;17749;51.962;8.560;2022-12-26T06:25:03;99623.19;;;9.18;100.00
31096;BME280;17749;51.962;8.560;2022-12-26T06:27:30;99624.91;;;9.19;100.00
31096;BME280;17749;51.962;8.560;2022-12-26T06:29:57;99626.66;;;9.20;100.00
31096;BME280;17749;51.962;8.560;2022-12-26T06:32:24;99623.31;;;9.15;100.00
31096;BME280;17749;51.962;8.560;2022-12-26T06:34:51;99621.63;;;9.14;100.00
31096;BME280;17749;51.962;8.560;2022-12-26T06:37:18;99618.28;;;9.09;100.00
31096;BME280;17749;51.962;8.560;2022-12-26T06:39:45;99609.41;;;9.09;100.00
31096;BME280;17749;51.962;8.560;2022-12-26T06:42:12;99608.69;;;9.05;100.00
31096;BME280;17749;51.962;8.560;2022-12-26T06:44:39;99612.34;;;9.03;100.00
31096;BME280;17749;51.962;8.560;2022-12-26T06:47:05;99602.44;;;9.06;100.00
31096;BME280;17749;51.962;8.560;2022-12-26T06:49:32;99598.22;;;9.02;100.00
31096;BME280;17749;51.962;8.560;2022-12-26T06:51:59;99598.88;;;9.07;100.00
31096;BME280;17749;51.962;8.560;2022-12-26T06:54:26;99606.91;;;9.06;100.00
31096;BME280;17749;51.962;8.560;2022-12-26T06:56:53;99604.31;;;9.04;100.00
31096;BME280;17749;51.962;8.560;2022-12-26T06:59:20;99607.75;;;9.06;100.00
31096;BME280;17749;51.962;8.560;2022-12-26T07:01:47;99595.41;;;9.05;100.00
31096;BME280;17749;51.962;8.560;2022-12-26T07:04:15;99597.88;;;9.10;100.00
31096;BME280;17749;51.962;8.560;2022-12-26T07:06:41;99598.06;;;9.05;100.00
31096;BME280;17749;51.962;8.560;2022-12-26T07:09:11;99591.81;;;9.06;100.00
31096;BME280;17749;51.962;8.560;2022-12-26T07:11:43;99602.53;;;9.05;100.00
31096;BME280;17749;51.962;8.560;2022-12-26T07:14:11;99610.81;;;8.97;100.00
31096;BME280;17749;51.962;8.560;2022-12-26T07:16:39;99617.72;;;9.01;100.00
31096;BME280;17749;51.962;8.560;2022-12-26T07:19:09;99631.13;;;8.98;100.00
31096;BME280;17749;51.962;8.560;2022-12-26T07:21:36;99632.88;;;8.99;100.00
31096;BME280;17749;51.962;8.560;2022-12-26T07:24:13;99647.06;;;8.98;100.00
31096;BME280;17749;51.962;8.560;2022-12-26T07:26:41;99655.03;;;8.98;100.00
31096;BME280;17749;51.962;8.560;2022-12-26T07:29:09;99654.22;;;8.96;100.00
31096;BME280;17749;51.962;8.560;2022-12-26T07:31:36;99654.97;;;8.99;100.00
31096;BME280;17749;51.962;8.560;2022-12-26T07:34:03;99661.00;;;9.03;100.00
31096;BME280;17749;51.962;8.560;2022-12-26T07:36:30;99664.59;;;9.02;100.00
31096;BME280;17749;51.962;8.560;2022-12-26T07:38:57;99659.44;;;8.99;100.00
31096;BME280;17749;51.962;8.560;2022-12-26T07:41:24;99652.50;;;8.95;100.00
31096;BME280;17749;51.962;8.560;2022-12-26T07:44:10;99652.75;;;8.89;100.00
31096;BME280;17749;51.962;8.560;2022-12-26T07:46:37;99651.81;;;8.90;100.00
31096;BME280;17749;51.962;8.560;2022-12-26T07:49:04;99660.59;;;8.92;100.00
31096;BME280;17749;51.962;8.560;2022-12-26T07:51:31;99663.25;;;8.92;100.00
31096;BME280;17749;51.962;8.560;2022-12-26T07:53:58;99674.00;;;8.89;100.00
31096;BME280;17749;51.962;8.560;2022-12-26T07:56:25;99674.84;;;8.89;100.00
31096;BME280;17749;51.962;8.560;2022-12-26T07:58:52;99671.16;;;8.93;100.00
31096;BME280;17749;51.962;8.560;2022-12-26T08:01:19;99672.16;;;8.91;100.00
31096;BME280;17749;51.962;8.560;2022-12-26T08:03:50;99670.41;;;8.90;100.00
31096;BME280;17749;51.962;8.560;2022-12-26T08:06:18;99656.31;;;8.88;100.00
31096;BME280;17749;51.962;8.560;2022-12-26T08:08:46;99664.38;;;8.86;100.00
31096;BME280;17749;51.962;8.560;2022-12-26T08:11:19;99662.50;;;8.88;100.00
31096;BME280;17749;51.962;8.560;2022-12-26T08:13:48;99672.25;;;8.88;100.00
31096;BME280;17749;51.962;8.560;2022-12-26T08:16:15;99684.63;;;8.89;100.00
31096;BME280;17749;51.962;8.560;2022-12-26T08:18:42;99684.66;;;8.87;100.00
31096;BME280;17749;51.962;8.560;2022-12-26T08:21:10;99680.13;;;8.91;100.00
31096;BME280;17749;51.962;8.560;2022-12-26T08:23:37;99681.97;;;8.89;100.00
31096;BME280;17749;51.962;8.560;2022-12-26T08:26:06;99686.34;;;8.90;100.00
31096;BME280;17749;51.962;8.560;2022-12-26T08:28:34;99684.50;;;8.92;100.00
31096;BME280;17749;51.962;8.560;2022-12-26T08:31:05;99672.16;;;8.91;100.00
31096;BME280;17749;51.962;8.560;2022-12-26T08:33:33;99673.06;;;8.90;100.00
31096;BME280;17749;51.962;8.560;2022-12-26T08:36:07;99673.88;;;8.92;100.00
31096;BME280;17749;51.962;8.560;2022-12-26T08:38:35;99684.50;;;8.92;100.00
31096;BME280;17749;51.962;8.560;2022-12-26T08:41:03;99680.91;;;8.93;100.00
31096;BME280;17749;51.962;8.560;2022-12-26T08:43:30;99681.03;;;8.90;100.00
31096;BME280;17749;51.962;8.560;2022-12-26T08:46:18;99695.38;;;8.86;100.00
31096;BME280;17749;51.962;8.560;2022-12-26T08:48:46;99695.38;;;8.86;100.00
31096;BME280;17749;51.962;8.560;2022-12-26T08:51:19;99697.94;;;8.87;100.00
31096;BME280;17749;51.962;8.560;2022-12-26T08:53:47;99706.00;;;8.86;100.00
31096;BME280;17749;51.962;8.560;2022-12-26T08:56:17;99689.00;;;8.90;100.00
31096;BME280;17749;51.962;8.560;2022-12-26T08:58:45;99692.63;;;8.87;100.00
31096;BME280;17749;51.962;8.560;2022-12-26T09:01:21;99684.84;;;8.83;100.00
31096;BME280;17749;51.962;8.560;2022-12-26T09:03:51;99683.13;;;8.82;100.00
31096;BME280;17749;51.962;8.560;2022-12-26T09:06:19;99696.28;;;8.85;100.00
31096;BME280;17749;51.962;8.560;2022-12-26T09:08:46;99697.81;;;8.90;100.00
31096;BME280;17749;51.962;8.560;2022-12-26T09:11:16;99698.72;;;8.91;100.00
31096;BME280;17749;51.962;8.560;2022-12-26T09:13:44;99703.03;;;8.93;100.00
31096;BME280;17749;51.962;8.560;2022-12-26T09:16:15;99700.56;;;8.89;100.00
31096;BME280;17749;51.962;8.560;2022-12-26T09:18:43;99706.66;;;8.91;100.00
31096;BME280;17749;51.962;8.560;2022-12-26T09:21:12;99703.13;;;8.90;100.00
31096;BME280;17749;51.962;8.560;2022-12-26T09:23:41;99715.38;;;8.94;100.00
31096;BME280;17749;51.962;8.560;2022-12-26T09:26:14;99712.53;;;8.99;100.00
31096;BME280;17749;51.962;8.560;2022-12-26T09:28:41;99713.44;;;8.98;100.00
31096;BME280;17749;51.962;8.560;2022-12-26T09:31:11;99703.03;;;8.93;100.00
31096;BME280;17749;51.962;8.560;2022-12-26T09:33:39;99711.66;;;8.98;100.00
31096;BME280;17749;51.962;8.560;2022-12-26T09:36:15;99715.25;;;8.97;100.00
31096;BME280;17749;51.962;8.560;2022-12-26T09:38:43;99711.56;;;9.02;100.00
31096;BME280;17749;51.962;8.560;2022-12-26T09:49:47;99717.25;;;9.14;100.00
31096;BME280;17749;51.962;8.560;2022-12-26T09:52:17;99713.53;;;9.18;100.00
31096;BME280;17749;51.962;8.560;2022-12-26T09:54:54;99716.84;;;9.24;100.00
31096;BME280;17749;51.962;8.560;2022-12-26T09:57:33;99707.94;;;9.25;100.00
31096;BME280;17749;51.962;8.560;2022-12-26T10:00:04;99714.88;;;9.29;100.00
31096;BME280;17749;51.962;8.560;2022-12-26T10:02:37;99719.25;;;9.30;100.00
31096;BME280;17749;51.962;8.560;2022-12-26T10:05:05;99709.28;;;9.35;100.00
31096;BME280;17749;51.962;8.560;2022-12-26T10:10:13;99699.44;;;9.38;100.00
31096;BME280;17749;51.962;8.560;2022-12-26T10:12:57;99706.41;;;9.41;100.00
31096;BME280;17749;51.962;8.560;2022-12-26T10:15:40;99702.34;;;9.53;100.00
31096;BME280;17749;51.962;8.560;2022-12-26T10:23:38;99693.25;;;9.79;100.00
31096;BME280;17749;51.962;8.560;2022-12-26T10:28:51;99694.03;;;9.82;100.00
31096;BME280;17749;51.962;8.560;2022-12-26T10:31:31;99701.78;;;9.87;100.00
31096;BME280;17749;51.962;8.560;2022-12-26T10:40:14;99712.88;;;9.97;100.00
31096;BME280;17749;51.962;8.560;2022-12-26T10:42:44;99703.25;;;9.94;100.00
31096;BME280;17749;51.962;8.560;2022-12-26T10:45:16;99712.03;;;9.96;100.00
31096;BME280;17749;51.962;8.560;2022-12-26T10:47:48;99708.56;;;9.94;100.00
31096;BME280;17749;51.962;8.560;2022-12-26T10:50:19;99712.16;;;9.93;100.00
31096;BME280;17749;51.962;8.560;2022-12-26T10:52:54;99711.56;;;9.86;100.00
31096;BME280;17749;51.962;8.560;2022-12-26T10:55:27;99708.84;;;9.88;100.00
31096;BME280;17749;51.962;8.560;2022-12-26T10:58:03;99713.16;;;9.91;100.00
31096;BME280;17749;51.962;8.560;2022-12-26T11:00:33;99705.09;;;9.92;100.00
31096;BME280;17749;51.962;8.560;2022-12-26T11:05:30;99703.63;;;9.85;100.00
31096;BME280;17749;51.962;8.560;2022-12-26T11:08:25;99705.22;;;9.89;100.00
31096;BME280;17749;51.962;8.560;2022-12-26T11:11:12;99701.78;;;9.87;100.00
31096;BME280;17749;51.962;8.560;2022-12-26T11:13:50;99703.63;;;9.85;100.00
31096;BME280;17749;51.962;8.560;2022-12-26T11:16:27;99700.19;;;9.83;100.00
31096;BME280;17749;51.962;8.560;2022-12-26T11:18:55;99706.19;;;9.88;100.00
31096;BME280;17749;51.962;8.560;2022-12-26T11:21:25;99701.63;;;9.90;100.00
31096;BME280;17749;51.962;8.560;2022-12-26T11:26:36;99696.59;;;9.84;100.00
31096;BME280;17749;51.962;8.560;2022-12-26T11:31:40;99702.75;;;9.84;100.00
31096;BME280;17749;51.962;8.560;2022-12-26T11:34:13;99702.75;;;9.84;100.00
31096;BME280;17749;51.962;8.560;2022-12-26T11:36:45;99703.50;;;9.88;100.00
31096;BME280;17749;51.962;8.560;2022-12-26T11:39:26;99700.19;;;9.83;100.00
31096;BME280;17749;51.962;8.560;2022-12-26T11:41:54;99692.97;;;9.85;100.00
31096;BME280;17749;51.962;8.560;2022-12-26T11:44:30;99687.66;;;9.85;100.00
31096;BME280;17749;51.962;8.560;2022-12-26T11:47:08;99697.44;;;9.84;100.00
31096;BME280;17749;51.962;8.560;2022-12-26T12:00:37;99678.59;;;9.91;100.00
31096;BME280;17749;51.962;8.560;2022-12-26T12:03:29;99680.34;;;9.90;100.00
31096;BME280;17749;51.962;8.560;2022-12-26T12:25:33;99688.16;;;9.54;100.00
31096;BME280;17749;51.962;8.560;2022-12-26T12:28:17;99682.09;;;9.50;100.00
31096;BME280;17749;51.962;8.560;2022-12-26T12:31:07;99679.44;;;9.50;100.00
31096;BME280;17749;51.962;8.560;2022-12-26T12:34:17;99679.38;;;9.52;100.00
31096;BME280;17749;51.962;8.560;2022-12-26T12:39:58;99671.66;;;9.66;100.00
31096;BME280;17749;51.962;8.560;2022-12-26T12:42:42;99684.47;;;9.77;100.00
31096;BME280;17749;51.962;8.560;2022-12-26T12:50:41;99681.06;;;9.75;100.00
31096;BME280;17749;51.962;8.560;2022-12-26T12:53:17;99679.16;;;9.77;100.00
31096;BME280;17749;51.962;8.560;2022-12-26T12:55:58;99673.25;;;9.70;100.00
31096;BME280;17749;51.962;8.560;2022-12-26T13:01:18;99675.84;;;9.72;100.00
31096;BME280;17749;51.962;8.560;2022-12-26T13:06:39;99671.53;;;9.69;100.00
31096;BME280;17749;51.962;8.560;2022-12-26T13:11:53;99671.41;;;9.72;100.00
31096;BME280;17749;51.962;8.560;2022-12-26T13:14:30;99673.06;;;9.75;100.00
31096;BME280;17749;51.962;8.560;2022-12-26T13:17:04;99672.28;;;9.73;100.00
31096;BME280;17749;51.962;8.560;2022-12-26T13:22:36;99653.56;;;9.74;100.00
31096;BME280;17749;51.962;8.560;2022-12-26T13:25:37;99657.19;;;9.73;100.00
31096;BME280;17749;51.962;8.560;2022-12-26T13:28:10;99670.66;;;9.69;100.00
31096;BME280;17749;51.962;8.560;2022-12-26T13:30:39;99698.06;;;9.71;100.00
31096;BME280;17749;51.962;8.560;2022-12-26T13:33:12;99719.69;;;9.61;100.00
31096;BME280;17749;51.962;8.560;2022-12-26T13:36:09;99715.38;;;9.38;100.00
31096;BME280;17749;51.962;8.560;2022-12-26T13:41:27;99718.53;;;9.04;100.00
31096;BME280;17749;51.962;8.560;2022-12-26T13:52:23;99737.09;;;8.82;100.00
31096;BME280;17749;51.962;8.560;2022-12-26T13:57:38;99754.00;;;8.80;100.00
31096;BME280;17749;51.962;8.560;2022-12-26T14:11:41;99790.59;;;7.96;100.00
31096;BME280;17749;51.962;8.560;2022-12-26T14:14:49;99798.13;;;7.83;100.00
31096;BME280;17749;51.962;8.560;2022-12-26T14:18:21;99808.34;;;7.67;100.00
31096;BME280;17749;51.962;8.560;2022-12-26T14:20:32;99816.56;;;7.60;100.00
31096;BME280;17749;51.962;8.560;2022-12-26T14:43:09;99862.31;;;7.09;100.00
31096;BME280;17749;51.962;8.560;2022-12-26T14:45:44;99867.63;;;7.07;100.00
31096;BME280;17749;51.962;8.560;2022-12-26T14:50:54;99885.50;;;7.00;100.00
31096;BME280;17749;51.962;8.560;2022-12-26T14:53:43;99889.13;;;6.96;100.00
31096;BME280;17749;51.962;8.560;2022-12-26T15:11:49;99900.41;;;6.72;100.00
31096;BME280;17749;51.962;8.560;2022-12-26T15:14:52;99901.38;;;6.68;100.00
31096;BME280;17749;51.962;8.560;2022-12-26T15:17:56;99902.41;;;6.64;100.00
31096;BME280;17749;51.962;8.560;2022-12-26T15:41:12;99946.56;;;6.27;100.00
31096;BME280;17749;51.962;8.560;2022-12-26T15:46:27;99947.66;;;6.19;100.00
31096;BME280;17749;51.962;8.560;2022-12-26T15:49:07;99958.28;;;6.15;100.00
31096;BME280;17749;51.962;8.560;2022-12-26T15:57:18;99956.56;;;6.14;100.00
31096;BME280;17749;51.962;8.560;2022-12-26T16:05:40;99970.78;;;6.10;100.00
31096;BME280;17749;51.962;8.560;2022-12-26T16:10:37;99984.97;;;6.06;100.00
31096;BME280;17749;51.962;8.560;2022-12-26T16:16:06;99996.44;;;6.05;100.00
31096;BME280;17749;51.962;8.560;2022-12-26T16:18:32;99996.50;;;6.02;100.00
31096;BME280;17749;51.962;8.560;2022-12-26T16:21:02;100001.84;;;6.01;100.00
31096;BME280;17749;51.962;8.560;2022-12-26T16:23:51;100005.44;;;5.97;100.00
31096;BME280;17749;51.962;8.560;2022-12-26T16:26:25;99994.94;;;5.95;100.00
31096;BME280;17749;51.962;8.560;2022-12-26T16:28:53;100001.03;;;5.97;100.00
31096;BME280;17749;51.962;8.560;2022-12-26T16:31:24;100008.94;;;5.97;100.00
31096;BME280;17749;51.962;8.560;2022-12-26T16:33:52;100021.31;;;5.97;100.00
31096;BME280;17749;51.962;8.560;2022-12-26T16:36:22;100022.16;;;5.97;100.00
31096;BME280;17749;51.962;8.560;2022-12-26T16:38:50;100022.25;;;5.94;100.00
31096;BME280;17749;51.962;8.560;2022-12-26T16:41:20;100027.44;;;5.97;100.00
31096;BME280;17749;51.962;8.560;2022-12-26T16:43:49;100030.16;;;5.94;100.00
31096;BME280;17749;51.962;8.560;2022-12-26T16:46:16;100029.28;;;5.95;100.00
31096;BME280;17749;51.962;8.560;2022-12-26T16:48:47;100028.41;;;5.93;100.00
31096;BME280;17749;51.962;8.560;2022-12-26T16:54:26;100034.56;;;5.95;100.00
31096;BME280;17749;51.962;8.560;2022-12-26T16:57:08;100035.47;;;5.94;100.00
31096;BME280;17749;51.962;8.560;2022-12-26T16:59:55;100033.84;;;5.87;100.00
31096;BME280;17749;51.962;8.560;2022-12-26T17:05:04;100038.13;;;5.91;100.00
31096;BME280;17749;51.962;8.560;2022-12-26T17:07:35;100047.88;;;5.89;100.00
31096;BME280;17749;51.962;8.560;2022-12-26T17:10:05;100043.56;;;5.85;100.00
31096;BME280;17749;51.962;8.560;2022-12-26T17:12:39;100048.00;;;5.84;100.00
31096;BME280;17749;51.962;8.560;2022-12-26T17:15:07;100053.22;;;5.86;100.00
31096;BME280;17749;51.962;8.560;2022-12-26T17:17:36;100058.50;;;5.87;100.00
31096;BME280;17749;51.962;8.560;2022-12-26T17:22:49;100065.50;;;5.90;100.00
31096;BME280;17749;51.962;8.560;2022-12-26T17:27:44;100065.44;;;5.91;100.00
31096;BME280;17749;51.962;8.560;2022-12-26T17:30:41;100072.47;;;5.92;100.00
31096;BME280;17749;51.962;8.560;2022-12-26T17:33:26;100075.16;;;5.91;100.00
31096;BME280;17749;51.962;8.560;2022-12-26T17:35:56;100076.00;;;5.91;100.00
31096;BME280;17749;51.962;8.560;2022-12-26T17:38:44;100078.59;;;5.96;100.00
31096;BME280;17749;51.962;8.560;2022-12-26T17:41:21;100076.78;;;5.98;100.00
31096;BME280;17749;51.962;8.560;2022-12-26T17:43:52;100073.22;;;5.99;100.00
31096;BME280;17749;51.962;8.560;2022-12-26T17:46:25;100075.94;;;5.96;100.00
31096;BME280;17749;51.962;8.560;2022-12-26T17:48:56;100076.78;;;5.98;100.00
31096;BME280;17749;51.962;8.560;2022-12-26T17:51:27;100085.59;;;5.97;100.00
31096;BME280;17749;51.962;8.560;2022-12-26T17:53:56;100094.44;;;5.96;100.00
31096;BME280;17749;51.962;8.560;2022-12-26T17:56:24;100097.19;;;5.90;100.00
31096;BME280;17749;51.962;8.560;2022-12-26T17:58:53;100098.22;;;5.83;100.00
31096;BME280;17749;51.962;8.560;2022-12-26T18:01:23;100093.94;;;5.77;100.00
31096;BME280;17749;51.962;8.560;2022-12-26T18:03:54;100092.31;;;5.71;100.00
31096;BME280;17749;51.962;8.560;2022-12-26T18:06:27;100097.69;;;5.65;100.00
31096;BME280;17749;51.962;8.560;2022-12-26T18:08:55;100099.53;;;5.62;100.00
31096;BME280;17749;51.962;8.560;2022-12-26T18:11:22;100119.03;;;5.55;100.00
31096;BME280;17749;51.962;8.560;2022-12-26T18:14:00;100119.16;;;5.48;100.00
31096;BME280;17749;51.962;8.560;2022-12-26T18:16:27;100124.59;;;5.41;100.00
31096;BME280;17749;51.962;8.560;2022-12-26T18:18:55;100118.59;;;5.33;100.00
31096;BME280;17749;51.962;8.560;2022-12-26T18:21:21;100130.00;;;5.33;100.00
31096;BME280;17749;51.962;8.560;2022-12-26T18:23:48;100134.38;;;5.34;100.00
31096;BME280;17749;51.962;8.560;2022-12-26T18:26:20;100143.19;;;5.35;100.00
31096;BME280;17749;51.962;8.560;2022-12-26T18:28:49;100152.00;;;5.35;100.00
31096;BME280;17749;51.962;8.560;2022-12-26T18:31:17;100162.56;;;5.34;100.00
31096;BME280;17749;51.962;8.560;2022-12-26T18:33:44;100160.78;;;5.36;100.00
31096;BME280;17749;51.962;8.560;2022-12-26T18:36:15;100170.56;;;5.29;100.00
31096;BME280;17749;51.962;8.560;2022-12-26T18:38:43;100172.44;;;5.24;100.00
31096;BME280;17749;51.962;8.560;2022-12-26T18:41:18;100175.16;;;5.19;100.00
31096;BME280;17749;51.962;8.560;2022-12-26T18:43:48;100180.50;;;5.13;100.00
31096;BME280;17749;51.962;8.560;2022-12-26T18:46:22;100180.69;;;5.04;100.00
31096;BME280;17749;51.962;8.560;2022-12-26T18:48:50;100183.38;;;5.01;100.00
31096;BME280;17749;51.962;8.560;2022-12-26T18:51:20;100183.38;;;4.99;100.00
31096;BME280;17749;51.962;8.560;2022-12-26T18:53:47;100186.00;;;5.01;100.00
31096;BME280;17749;51.962;8.560;2022-12-26T18:56:16;100186.06;;;4.98;100.00
31096;BME280;17749;51.962;8.560;2022-12-26T18:58:47;100186.94;;;4.98;100.00
31096;BME280;17749;51.962;8.560;2022-12-26T19:01:23;100193.06;;;4.99;100.00
31096;BME280;17749;51.962;8.560;2022-12-26T19:03:53;100200.19;;;4.92;100.00
31096;BME280;17749;51.962;8.560;2022-12-26T19:06:23;100199.28;;;4.96;100.00
31096;BME280;17749;51.962;8.560;2022-12-26T19:08:51;100207.19;;;4.98;100.00
31096;BME280;17749;51.962;8.560;2022-12-26T19:11:18;100206.28;;;4.97;100.00
31096;BME280;17749;51.962;8.560;2022-12-26T19:13:45;100208.16;;;4.89;100.00
31096;BME280;17749;51.962;8.560;2022-12-26T19:16:12;100215.16;;;4.92;100.00
31096;BME280;17749;51.962;8.560;2022-12-26T19:18:39;100217.03;;;4.85;100.00
31096;BME280;17749;51.962;8.560;2022-12-26T19:21:11;100222.34;;;4.83;100.00
31096;BME280;17749;51.962;8.560;2022-12-26T19:23:39;100225.84;;;4.86;100.00
31096;BME280;17749;51.962;8.560;2022-12-26T19:26:10;100225.84;;;4.84;100.00
31096;BME280;17749;51.962;8.560;2022-12-26T19:28:37;100235.53;;;4.83;100.00
31096;BME280;17749;51.962;8.560;2022-12-26T19:31:14;100248.72;;;4.85;100.00
31096;BME280;17749;51.962;8.560;2022-12-26T19:33:42;100249.75;;;4.73;100.00
31096;BME280;17749;51.962;8.560;2022-12-26T19:36:09;100258.59;;;4.69;100.00
31096;BME280;17749;51.962;8.560;2022-12-26T19:38:36;100255.13;;;4.67;100.00
31096;BME280;17749;51.962;8.560;2022-12-26T19:41:05;100271.81;;;4.68;100.00
31096;BME280;17749;51.962;8.560;2022-12-26T19:43:33;100265.66;;;4.67;100.00
31096;BME280;17749;51.962;8.560;2022-12-26T19:46:02;100280.63;;;4.67;100.00
31096;BME280;17749;51.962;8.560;2022-12-26T19:48:31;100278.03;;;4.62;100.00
31096;BME280;17749;51.962;8.560;2022-12-26T19:51:03;100287.78;;;4.57;100.00
31096;BME280;17749;51.962;8.560;2022-12-26T19:53:30;100288.69;;;4.56;100.00
31096;BME280;17749;51.962;8.560;2022-12-26T19:55:57;100295.72;;;4.54;100.00
31096;BME280;17749;51.962;8.560;2022-12-26T19:58:28;100294.06;;;4.48;100.00
31096;BME280;17749;51.962;8.560;2022-12-26T20:01:04;100295.88;;;4.43;100.00
31096;BME280;17749;51.962;8.560;2022-12-26T20:03:31;100304.69;;;4.41;100.00
31096;BME280;17749;51.962;8.560;2022-12-26T20:05:58;100312.59;;;4.39;100.00
31096;BME280;17749;51.962;8.560;2022-12-26T20:08:26;100315.28;;;4.34;100.00
31096;BME280;17749;51.962;8.560;2022-12-26T20:10:53;100316.28;;;4.24;100.00
31096;BME280;17749;51.962;8.560;2022-12-26T20:13:26;100333.00;;;4.23;100.00
31096;BME280;17749;51.962;8.560;2022-12-26T20:15:53;100328.69;;;4.14;100.00
31096;BME280;17749;51.962;8.560;2022-12-26T20:18:19;100336.59;;;4.14;100.00
31096;BME280;17749;51.962;8.560;2022-12-26T20:20:52;100341.94;;;4.05;100.00
31096;BME280;17749;51.962;8.560;2022-12-26T20:23:20;100342.88;;;4.00;100.00
31096;BME280;17749;51.962;8.560;2022-12-26T20:25:47;100338.53;;;3.99;100.00
31096;BME280;17749;51.962;8.560;2022-12-26T20:28:14;100343.78;;;3.95;100.00
31096;BME280;17749;51.962;8.560;2022-12-26T20:30:41;100351.78;;;3.86;100.00
31096;BME280;17749;51.962;8.560;2022-12-26T20:33:08;100361.50;;;3.80;100.00
31096;BME280;17749;51.962;8.560;2022-12-26T20:35:35;100358.03;;;3.76;100.00
31096;BME280;17749;51.962;8.560;2022-12-26T20:38:02;100351.94;;;3.68;100.00
31096;BME280;17749;51.962;8.560;2022-12-26T20:40:28;100359.78;;;3.74;100.00
31096;BME280;17749;51.962;8.560;2022-12-26T20:42:55;100366.78;;;3.78;100.00
31096;BME280;17749;51.962;8.560;2022-12-26T20:45:22;100370.28;;;3.77;100.00
31096;BME280;17749;51.962;8.560;2022-12-26T20:47:49;100375.56;;;3.77;100.00
31096;BME280;17749;51.962;8.560;2022-12-26T20:50:16;100378.22;;;3.74;100.00
31096;BME280;17749;51.962;8.560;2022-12-26T20:52:43;100389.66;;;3.73;100.00
31096;BME280;17749;51.962;8.560;2022-12-26T20:55:10;100386.16;;;3.72;100.00
31096;BME280;17749;51.962;8.560;2022-12-26T20:57:37;100387.97;;;3.66;100.00
31096;BME280;17749;51.962;8.560;2022-12-26T21:00:04;100386.25;;;3.62;100.00
31096;BME280;17749;51.962;8.560;2022-12-26T21:02:32;100386.25;;;3.60;100.00
31096;BME280;17749;51.962;8.560;2022-12-26T21:04:59;100387.16;;;3.55;100.00
31096;BME280;17749;51.962;8.560;2022-12-26T21:07:30;100388.03;;;3.54;100.00
31096;BME280;17749;51.962;8.560;2022-12-26T21:09:59;100395.06;;;3.55;100.00
31096;BME280;17749;51.962;8.560;2022-12-26T21:12:45;100396.81;;;3.53;100.00
31096;BME280;17749;51.962;8.560;2022-12-26T21:15:12;100410.03;;;3.49;100.00
31096;BME280;17749;51.962;8.560;2022-12-26T21:17:38;100409.16;;;3.47;100.00
31096;BME280;17749;51.962;8.560;2022-12-26T21:20:06;100414.47;;;3.41;100.00
31096;BME280;17749;51.962;8.560;2022-12-26T21:22:33;100412.69;;;3.42;100.00
31096;BME280;17749;51.962;8.560;2022-12-26T21:25:00;100404.78;;;3.40;100.00
31096;BME280;17749;51.962;8.560;2022-12-26T21:27:27;100405.72;;;3.36;100.00
31096;BME280;17749;51.962;8.560;2022-12-26T21:29:54;100416.28;;;3.33;100.00
